Time;durP1;ratioP1;P1;durP2;ratioP2;P2;SDS_P1;SDS_P2;PMS_P1;PMS_P2;Temp;Humidity;BMP_temperature;BMP_pressure;BME280_temperature;BME280_humidity;BME280_pressure;Samples;Min_cycle;Max_cycle;Signal;HPM_P1;HPM_P2
2023/01/17 08:45:56;;;;;;;3.53;1.50;;;;;;;1.08;81.00;93826.94;2100444;27;20564;-61
2023/01/17 08:48:54;;;;;;;4.43;1.38;;;;;;;2.55;76.14;93821.44;2100093;27;20571;-62
2023/01/17 08:49:58;;;;;;;10.52;1.50;;;;;;;2.71;75.40;93816.22;2095435;28;20196;-63
2023/01/17 08:51:01;;;;;;;3.05;1.25;;;;;;;3.47;73.26;93814.28;2099135;28;20246;-63
2023/01/17 08:53:40;;;;;;;6.65;1.40;;;;;;;4.32;69.56;93807.16;2083074;28;20576;-64
2023/01/17 08:54:42;;;;;;;5.88;1.65;;;;;;;5.01;67.21;93816.41;2083514;28;20204;-64
2023/01/17 08:57:21;;;;;;;3.05;0.98;;;;;;;4.95;65.77;93802.16;2110262;27;20547;-64
2023/01/17 08:58:23;;;;;;;2.30;0.80;;;;;;;5.05;65.58;93818.69;2103206;27;20223;-65
2023/01/17 08:59:24;;;;;;;2.35;1.20;;;;;;;5.82;64.72;93814.31;2097344;28;20246;-65
2023/01/17 09:00:27;;;;;;;2.22;0.82;;;;;;;5.98;63.61;93806.25;2097162;28;20195;-65
2023/01/17 09:01:29;;;;;;;6.40;1.35;;;;;;;5.49;64.20;93813.16;2095650;28;20204;-65
2023/01/17 09:02:30;;;;;;;1.70;1.00;;;;;;;5.53;64.30;93807.63;2094150;28;20729;-65
2023/01/17 09:03:33;;;;;;;3.33;1.30;;;;;;;5.98;63.79;93812.31;2095741;28;20249;-65
2023/01/17 09:04:35;;;;;;;11.43;1.05;;;;;;;5.75;62.62;93807.91;2092549;28;20197;-66
2023/01/17 09:05:36;;;;;;;2.05;1.13;;;;;;;6.54;61.98;93795.31;2098235;28;20201;-65
2023/01/17 09:06:40;;;;;;;4.40;1.45;;;;;;;6.41;61.24;93803.16;2096229;28;20292;-66
2023/01/17 09:07:41;;;;;;;2.60;1.00;;;;;;;6.52;60.77;93808.38;2096643;28;20195;-65
2023/01/17 09:08:46;;;;;;;6.00;1.30;;;;;;;6.62;60.77;93803.34;2098060;28;20947;-66
2023/01/17 09:09:48;;;;;;;5.05;1.30;;;;;;;6.73;60.38;93788.75;2094860;28;20203;-66
2023/01/17 09:10:49;;;;;;;30.90;14.07;;;;;;;7.46;59.26;93807.44;2095482;28;20265;-67
2023/01/17 09:11:52;;;;;;;16.00;8.20;;;;;;;7.28;59.24;93802.72;2095679;28;20228;-67
2023/01/17 09:12:53;;;;;;;6.78;1.23;;;;;;;7.99;57.26;93792.00;2095259;28;20639;-69
2023/01/17 09:13:54;;;;;;;4.75;1.30;;;;;;;7.86;56.08;93786.16;2103244;28;20195;-67
2023/01/17 09:14:56;;;;;;;5.20;1.40;;;;;;;8.71;54.46;93801.91;2105335;28;20210;-67
2023/01/17 09:15:58;;;;;;;3.75;1.05;;;;;;;8.95;54.85;93794.69;2095679;28;20528;-67
2023/01/17 09:17:00;;;;;;;6.53;1.25;;;;;;;8.96;55.22;93798.09;2096843;28;20860;-68
2023/01/17 09:18:02;;;;;;;4.20;0.98;;;;;;;8.21;55.35;93792.06;2093983;28;20196;-69
2023/01/17 09:19:03;;;;;;;6.15;1.45;;;;;;;8.17;55.17;93799.28;2096024;28;20655;-69
2023/01/17 09:20:05;;;;;;;5.38;1.00;;;;;;;8.26;55.94;93795.94;2093020;28;20553;-69
2023/01/17 09:21:12;;;;;;;30.15;14.93;;;;;;;7.76;57.96;93804.22;2095567;28;20192;-66
2023/01/17 09:22:14;;;;;;;72.82;33.95;;;;;;;7.79;57.07;93790.97;2095695;28;20221;-66
2023/01/17 09:23:15;;;;;;;9.13;4.72;;;;;;;7.90;57.68;93794.50;2095799;28;20225;-68
2023/01/17 09:24:17;;;;;;;22.05;10.73;;;;;;;8.91;55.45;93806.31;2095827;28;20196;-67
2023/01/17 09:25:19;;;;;;;10.23;1.80;;;;;;;9.39;53.16;93801.47;2095309;28;20706;-68
2023/01/17 09:26:22;;;;;;;3.60;1.20;;;;;;;9.52;53.55;93801.22;2094797;28;20846;-68
2023/01/17 09:27:23;;;;;;;3.45;1.30;;;;;;;10.44;51.24;93793.19;2097044;28;20848;-68
2023/01/17 09:28:26;;;;;;;4.10;1.27;;;;;;;9.97;51.80;93796.41;2094135;28;20298;-68
2023/01/17 09:29:28;;;;;;;2.00;0.90;;;;;;;10.94;49.30;93781.78;2094535;28;20203;-68
2023/01/17 09:30:30;;;;;;;5.05;3.58;;;;;;;9.46;50.87;93773.94;2095723;28;20210;-68
2023/01/17 09:31:32;;;;;;;2.75;1.40;;;;;;;8.15;54.97;93767.38;2095340;28;20195;-67
2023/01/17 09:32:34;;;;;;;3.00;0.93;;;;;;;7.67;56.68;93778.97;2096296;28;20234;-67
2023/01/17 09:33:36;;;;;;;2.47;1.10;;;;;;;-145.49;100.00;55703.94;2097135;28;20254;-67
2023/01/17 09:34:37;;;;;;;2.85;1.00;;;;;;;-145.49;100.00;55703.94;2093083;28;20670;-67
2023/01/17 09:35:39;;;;;;;3.33;2.08;;;;;;;-145.49;56.68;71466.66;2081868;28;20240;-67
2023/01/17 09:36:40;;;;;;;2.58;1.65;;;;;;;8.81;54.85;93771.56;2092287;28;20200;-67
2023/01/17 09:37:42;;;;;;;6.10;1.50;;;;;;;10.33;51.14;93777.66;2094736;28;20206;-67
2023/01/17 09:38:44;;;;;;;1.75;1.17;;;;;;;9.77;52.35;93771.28;2094956;28;20226;-67
2023/01/17 09:39:46;;;;;;;7.10;1.48;;;;;;;9.59;52.85;93781.53;2094660;28;20199;-67
2023/01/17 09:40:47;;;;;;;3.13;1.00;;;;;;;10.50;50.20;93778.81;2095416;28;20198;-67
2023/01/17 09:42:16;;;;;;;5.15;1.30;;;;;;;9.69;50.63;93789.34;2098337;28;20653;-67
2023/01/17 09:43:24;;;;;;;4.85;1.63;;;;;;;10.74;50.27;93782.75;2095484;28;20220;-67
2023/01/17 09:44:45;;;;;;;2.85;1.13;;;;;;;11.48;48.88;93772.50;2095542;28;20214;-67
2023/01/17 09:45:46;;;;;;;2.05;0.80;;;;;;;12.76;45.88;93783.84;2094287;28;20763;-67
2023/01/17 09:46:50;;;;;;;4.88;1.20;;;;;;;12.80;45.47;93773.84;2094473;28;20196;-67
2023/01/17 09:47:53;;;;;;;4.18;1.25;;;;;;;12.97;45.69;93788.72;2097577;28;20200;-67
2023/01/17 09:49:06;;;;;;;5.28;1.30;;;;;;;11.64;45.85;93777.13;2095378;28;20220;-67
2023/01/17 09:50:31;;;;;;;2.38;1.13;;;;;;;10.52;51.40;93783.88;2094429;28;20196;-67
2023/01/17 09:51:33;;;;;;;2.10;1.10;;;;;;;11.45;48.82;93789.28;2094545;28;20220;-66
2023/01/17 09:52:34;;;;;;;6.55;1.30;;;;;;;12.01;47.00;93748.34;2094869;28;20554;-66
2023/01/17 09:53:40;;;;;;;3.15;1.13;;;;;;;11.71;48.77;93778.19;2092039;28;20227;-67
2023/01/17 09:54:44;;;;;;;1.90;1.10;;;;;;;11.99;49.32;93773.00;2097668;28;20662;-66
2023/01/17 09:55:56;;;;;;;2.45;1.00;;;;;;;12.36;45.71;93757.16;2095925;28;20574;-67
2023/01/17 09:57:29;;;;;;;2.00;1.10;;;;;;;12.71;45.76;93778.25;2094598;28;20823;-66
2023/01/17 09:58:47;;;;;;;4.72;1.40;;;;;;;13.09;44.59;93775.38;2094798;28;20326;-66
2023/01/17 10:00:04;;;;;;;4.88;1.30;;;;;;;12.51;46.51;93778.38;2092700;28;20807;-66
2023/01/17 10:01:16;;;;;;;5.63;1.33;;;;;;;12.01;48.33;93774.50;2096034;28;20196;-66
2023/01/17 10:02:20;;;;;;;3.55;1.30;;;;;;;13.40;45.15;93775.75;2095656;28;20193;-66
2023/01/17 10:03:47;;;;;;;3.00;1.00;;;;;;;13.80;43.14;93770.84;2094365;28;20220;-66
2023/01/17 10:05:15;;;;;;;5.10;1.40;;;;;;;13.25;46.51;93778.09;2095052;28;20195;-66
2023/01/17 10:06:22;;;;;;;2.10;0.95;;;;;;;12.84;44.66;93773.41;2093347;28;20616;-66
2023/01/17 10:07:37;;;;;;;1.77;1.00;;;;;;;13.49;46.02;93774.00;2097022;28;20206;-66
2023/01/17 10:08:57;;;;;;;4.15;1.25;;;;;;;13.74;45.74;93767.06;2090285;28;20971;-66
2023/01/17 10:10:29;;;;;;;2.45;1.15;;;;;;;14.86;43.19;93772.06;2091362;28;20215;-66
2023/01/17 10:11:45;;;;;;;2.65;1.10;;;;;;;15.33;40.47;93752.94;2076421;28;20233;-66
2023/01/17 10:13:18;;;;;;;9.32;1.42;;;;;;;15.76;39.96;93763.16;2089690;28;20642;-66
2023/01/17 10:14:50;;;;;;;4.70;1.13;;;;;;;15.50;40.01;93766.88;2089162;28;20890;-66
2023/01/17 10:16:04;;;;;;;5.63;1.33;;;;;;;14.93;40.47;93756.44;2089059;28;20847;-66
2023/01/17 10:17:36;;;;;;;5.55;1.35;;;;;;;14.73;39.71;93756.81;2091390;28;20849;-66
2023/01/17 10:19:02;;;;;;;1.50;0.85;;;;;;;12.76;43.30;93767.28;2073107;28;20730;-65
2023/01/17 10:20:16;;;;;;;4.03;1.13;;;;;;;12.83;44.07;93766.53;2089983;28;20196;-65
2023/01/17 10:21:29;;;;;;;7.85;1.40;;;;;;;13.54;42.68;93769.94;2088774;28;20201;-65
2023/01/17 10:23:08;;;;;;;2.55;1.50;;;;;;;14.50;41.30;93764.44;2087601;28;20196;-65
2023/01/17 10:24:34;;;;;;;1.90;1.13;;;;;;;14.46;42.13;93761.34;2088483;28;20219;-66
2023/01/17 10:25:42;;;;;;;3.63;1.17;;;;;;;13.92;43.20;93772.22;2086509;28;20200;-65
2023/01/17 10:26:50;;;;;;;2.90;1.20;;;;;;;14.59;42.87;93763.50;2096178;28;20199;-65
2023/01/17 10:28:03;;;;;;;4.25;1.40;;;;;;;14.65;42.05;93764.66;2098832;28;20782;-65
2023/01/17 10:29:15;;;;;;;7.10;1.85;;;;;;;14.71;40.98;93769.25;2098082;28;20227;-63
2023/01/17 10:30:48;;;;;;;8.15;4.05;;;;;;;14.27;42.84;93762.47;2094723;28;20184;-65
2023/01/17 10:31:54;;;;;;;36.40;21.10;;;;;;;13.45;42.39;93756.97;2086840;28;20245;-64
2023/01/17 10:33:00;;;;;;;5.00;1.10;;;;;;;12.89;42.58;93742.34;2092140;28;20693;-64
2023/01/17 10:34:11;;;;;;;5.28;1.33;;;;;;;13.68;42.38;93760.66;2088964;28;20196;-64
2023/01/17 10:35:25;;;;;;;3.58;1.20;;;;;;;12.96;43.72;93758.25;2092946;28;20200;-64
2023/01/17 10:36:33;;;;;;;5.03;1.35;;;;;;;13.14;44.97;93749.53;2090853;28;20212;-64
2023/01/17 10:37:41;;;;;;;3.20;1.50;;;;;;;12.39;45.63;93756.03;2089576;28;20207;-64
2023/01/17 10:38:46;;;;;;;3.15;1.40;;;;;;;12.63;44.99;93762.44;2090075;28;20710;-64
2023/01/17 10:39:49;;;;;;;3.13;1.35;;;;;;;13.34;43.80;93755.38;2090010;28;20194;-64
2023/01/17 10:40:58;;;;;;;3.55;1.40;;;;;;;11.75;46.23;93751.59;2092904;28;20210;-64
2023/01/17 10:42:30;;;;;;;2.38;0.90;;;;;;;12.51;44.66;93752.22;2089383;28;20792;-64
2023/01/17 10:43:38;;;;;;;3.47;1.00;;;;;;;13.40;43.97;93754.81;2087369;28;20235;-64
2023/01/17 10:44:54;;;;;;;2.40;1.00;;;;;;;13.18;44.81;93750.88;2088789;28;20241;-64
2023/01/17 10:45:56;;;;;;;8.65;1.27;;;;;;;13.32;43.21;93754.72;2086467;28;20207;-64
2023/01/17 10:47:09;;;;;;;2.00;0.80;;;;;;;14.09;42.67;93754.72;2089595;28;20196;-63
2023/01/17 10:48:37;;;;;;;2.33;1.23;;;;;;;13.04;44.51;93752.28;2088068;28;20571;-62
2023/01/17 10:49:45;;;;;;;2.95;1.05;;;;;;;12.98;43.46;93731.94;2088353;28;20201;-62
2023/01/17 10:51:05;;;;;;;2.40;1.00;;;;;;;14.30;42.39;93730.66;2088587;28;20203;-63
2023/01/17 10:52:45;;;;;;;1.83;0.90;;;;;;;13.36;43.41;93743.78;2088539;28;20215;-63
2023/01/17 10:54:02;;;;;;;2.80;1.30;;;;;;;13.39;43.07;93747.91;2078033;28;21183;-62
2023/01/17 10:55:08;;;;;;;3.00;1.50;;;;;;;12.39;45.09;93737.72;2094750;28;20581;-62
2023/01/17 10:56:13;;;;;;;4.10;1.05;;;;;;;12.17;45.38;93746.84;2093313;28;20674;-62
2023/01/17 10:57:25;;;;;;;1.63;0.80;;;;;;;13.14;47.60;93745.13;2089236;28;20224;-62
2023/01/17 10:58:26;;;;;;;2.40;1.00;;;;;;;12.37;47.27;93729.22;2088222;28;20771;-63
2023/01/17 10:59:33;;;;;;;1.40;0.80;;;;;;;13.11;44.10;93710.56;2087881;28;20232;-62
2023/01/17 11:00:47;;;;;;;3.67;0.90;;;;;;;12.54;45.89;93738.00;2090645;28;20207;-62
2023/01/17 11:01:48;;;;;;;3.95;0.82;;;;;;;11.23;46.88;93740.84;2090922;28;20218;-62
2023/01/17 11:02:51;;;;;;;3.00;0.90;;;;;;;9.60;49.48;93737.09;2087633;28;20291;-61
2023/01/17 11:03:54;;;;;;;3.30;1.00;;;;;;;8.73;53.18;93753.19;2087246;28;20228;-62
2023/01/17 11:04:56;;;;;;;4.95;1.10;;;;;;;8.95;56.21;93757.41;2089565;28;20203;-61
2023/01/17 11:06:19;;;;;;;4.88;1.00;;;;;;;8.91;57.36;93753.41;2089202;28;20200;-62
2023/01/17 11:07:26;;;;;;;3.10;1.17;;;;;;;7.29;55.76;93752.47;2091376;28;20206;-62
2023/01/17 11:08:49;;;;;;;2.25;1.15;;;;;;;7.56;55.79;93740.03;2089476;28;20240;-61
2023/01/17 11:09:56;;;;;;;5.50;1.33;;;;;;;7.01;56.73;93748.59;2095532;28;20191;-62
2023/01/17 11:11:03;;;;;;;2.03;0.98;;;;;;;6.60;61.18;93742.16;2093314;28;20199;-62
2023/01/17 11:12:04;;;;;;;3.53;1.00;;;;;;;7.44;56.89;93734.03;2087779;28;20200;-62
2023/01/17 11:13:18;;;;;;;2.50;0.80;;;;;;;8.59;54.32;93723.13;2087549;28;20192;-62
2023/01/17 11:14:23;;;;;;;2.50;0.95;;;;;;;10.62;53.91;93722.06;2086359;28;20193;-62
2023/01/17 11:15:25;;;;;;;5.10;1.75;;;;;;;11.74;51.92;93723.00;2090488;28;20192;-62
2023/01/17 11:16:30;;;;;;;2.92;1.00;;;;;;;11.27;50.94;93722.16;2090260;28;20227;-63
2023/01/17 11:17:32;;;;;;;3.60;0.90;;;;;;;10.91;49.24;93724.59;2088320;28;20584;-62
2023/01/17 11:18:37;;;;;;;4.00;1.00;;;;;;;10.02;48.54;93728.25;2086624;28;20282;-62
2023/01/17 11:19:39;;;;;;;2.08;0.88;;;;;;;9.30;51.59;93715.34;2087074;28;20231;-62
2023/01/17 11:20:41;;;;;;;2.15;0.95;;;;;;;8.14;53.51;93726.75;2088069;28;20211;-62
2023/01/17 11:21:53;;;;;;;2.25;1.00;;;;;;;8.94;53.35;93727.97;2089565;28;20231;-62
2023/01/17 11:23:12;;;;;;;2.75;1.25;;;;;;;8.18;54.12;93720.34;2086584;28;20196;-62
2023/01/17 11:24:19;;;;;;;2.55;1.30;;;;;;;9.07;55.64;93709.50;2085494;28;20227;-62
2023/01/17 11:25:22;;;;;;;3.05;1.30;;;;;;;10.05;51.13;93712.31;2088921;28;20203;-62
2023/01/17 11:26:31;;;;;;;1.42;0.80;;;;;;;10.20;49.46;93711.91;2088554;28;20203;-62
2023/01/17 11:27:36;;;;;;;2.85;1.10;;;;;;;9.38;50.96;93701.66;2089252;28;20200;-62
2023/01/17 11:28:40;;;;;;;3.65;1.30;;;;;;;10.64;49.38;93694.06;2087643;28;20224;-63
2023/01/17 11:29:41;;;;;;;9.38;1.70;;;;;;;10.92;48.99;93688.91;2089095;28;20219;-63
2023/01/17 11:30:58;;;;;;;2.35;1.70;;;;;;;10.70;49.14;93690.84;2087539;28;20196;-62
2023/01/17 11:32:21;;;;;;;3.85;1.20;;;;;;;11.55;48.27;93684.72;2090311;28;20200;-62
2023/01/17 11:33:28;;;;;;;1.90;0.90;;;;;;;11.55;50.22;93684.72;2088219;28;20212;-62
2023/01/17 11:34:31;;;;;;;3.58;0.80;;;;;;;11.22;50.76;93687.81;2089344;28;20196;-62
2023/01/17 11:35:35;;;;;;;4.03;1.55;;;;;;;10.69;47.97;93685.78;2095478;28;20295;-63
2023/01/17 11:36:37;;;;;;;3.20;1.33;;;;;;;9.72;49.33;93695.28;2095036;28;20208;-62
2023/01/17 11:37:47;;;;;;;3.38;0.95;;;;;;;7.94;51.86;93694.59;2092653;28;20199;-62
2023/01/17 11:39:01;;;;;;;3.55;1.10;;;;;;;7.79;53.52;93681.88;2090530;28;20231;-63
2023/01/17 11:40:22;;;;;;;3.80;1.20;;;;;;;6.83;53.02;93693.72;2089116;28;20191;-62
2023/01/17 11:41:27;;;;;;;5.18;1.75;;;;;;;5.94;55.30;93706.41;2089238;28;20197;-62
2023/01/17 11:42:34;;;;;;;5.63;1.13;;;;;;;6.48;55.71;93697.25;2089818;28;20310;-62
2023/01/17 11:43:54;;;;;;;2.90;1.05;;;;;;;6.26;57.29;93698.88;2088673;28;20221;-62
2023/01/17 11:45:21;;;;;;;6.05;0.90;;;;;;;6.89;57.91;93695.84;2088211;28;20654;-62
2023/01/17 11:46:23;;;;;;;3.47;1.10;;;;;;;6.95;56.12;93697.16;2088348;28;20200;-62
2023/01/17 11:47:25;;;;;;;3.20;1.13;;;;;;;8.27;56.85;93680.59;2088432;28;20258;-62
2023/01/17 11:48:32;;;;;;;4.28;1.17;;;;;;;8.32;55.97;93675.03;2087097;28;20223;-62
2023/01/17 11:49:34;;;;;;;3.50;1.23;;;;;;;8.81;57.27;93664.88;2089636;28;20249;-62
2023/01/17 11:50:39;;;;;;;4.70;1.17;;;;;;;9.29;49.77;93666.84;2090500;28;20257;-62
2023/01/17 11:51:42;;;;;;;5.30;1.23;;;;;;;8.72;51.50;93663.06;2089270;28;20232;-63
2023/01/17 11:52:43;;;;;;;4.00;1.00;;;;;;;9.53;52.88;93651.81;2090087;28;20222;-62
2023/01/17 11:53:48;;;;;;;2.03;0.80;;;;;;;9.62;49.20;93650.97;2089690;28;20713;-62
2023/01/17 11:54:53;;;;;;;2.72;0.90;;;;;;;10.12;52.12;93660.47;2090607;28;20685;-62
2023/01/17 11:56:10;;;;;;;2.92;1.00;;;;;;;10.18;49.16;93654.66;2088849;28;20199;-62
2023/01/17 11:57:26;;;;;;;3.30;1.00;;;;;;;9.00;48.31;93656.31;2095371;28;20318;-62
2023/01/17 11:58:29;;;;;;;2.20;0.95;;;;;;;7.84;50.02;93656.34;2093662;28;20231;-62
2023/01/17 11:59:36;;;;;;;2.63;0.80;;;;;;;7.82;52.18;93660.00;2087206;28;20200;-61
2023/01/17 12:00:44;;;;;;;2.40;1.00;;;;;;;8.36;49.59;93647.00;2091725;28;20229;-61
2023/01/17 12:02:00;;;;;;;2.88;0.82;;;;;;;9.07;48.10;93633.22;2091946;28;20567;-62
2023/01/17 12:03:12;;;;;;;2.75;0.82;;;;;;;9.86;50.31;93645.38;2086288;28;20236;-62
2023/01/17 12:04:33;;;;;;;2.35;1.00;;;;;;;10.77;49.09;93636.31;2089352;28;20671;-62
2023/01/17 12:05:56;;;;;;;8.05;0.88;;;;;;;10.54;47.39;93641.88;2089822;28;20202;-62
2023/01/17 12:07:13;;;;;;;14.07;6.78;;;;;;;10.29;43.95;93630.25;2089411;28;20199;-62
2023/01/17 12:08:27;;;;;;;38.00;16.90;;;;;;;9.05;43.86;93630.72;2090088;28;20239;-62
2023/01/17 12:10:01;;;;;;;9.43;3.55;;;;;;;8.47;46.59;93626.97;2089570;28;20191;-62
2023/01/17 12:11:15;;;;;;;6.93;3.55;;;;;;;7.73;49.43;93627.81;2072767;28;20204;-62
2023/01/17 12:14:28;;;;;;;2.22;0.80;;;;;;;6.96;49.89;93608.84;2088315;28;20586;-61
2023/01/17 12:15:38;;;;;;;1.58;0.70;;;;;;;7.40;49.45;93613.19;2086352;28;20197;-61
2023/01/17 12:16:58;;;;;;;3.33;0.80;;;;;;;6.03;50.18;93609.88;2089749;28;20284;-61
2023/01/17 12:18:18;;;;;;;2.35;0.70;;;;;;;6.60;49.46;93613.38;2088361;28;20582;-61
2023/01/17 12:19:36;;;;;;;5.53;0.80;;;;;;;6.22;50.71;93609.31;2093414;28;20202;-62
2023/01/17 12:20:51;;;;;;;2.25;0.90;;;;;;;5.70;51.08;93606.25;2092983;28;20398;-62
2023/01/17 12:22:11;;;;;;;3.70;0.82;;;;;;;5.72;53.14;93604.38;2088804;28;20197;-62
2023/01/17 12:23:26;;;;;;;2.47;0.70;;;;;;;5.88;54.09;93604.91;2085175;28;20726;-62
2023/01/17 12:24:46;;;;;;;2.95;0.70;;;;;;;6.14;53.55;93602.13;2089638;28;20239;-67
2023/01/17 12:26:02;;;;;;;3.95;1.05;;;;;;;5.73;50.58;93601.69;2087634;28;20234;-67
2023/01/17 12:27:23;;;;;;;2.08;0.70;;;;;;;5.73;51.37;93596.50;2086837;28;20201;-67
2023/01/17 12:28:45;;;;;;;2.00;0.77;;;;;;;5.55;50.53;93600.47;2090134;28;20208;-67
2023/01/17 12:30:07;;;;;;;1.23;0.70;;;;;;;-145.49;100.00;55703.94;2087695;28;20200;-67
2023/01/17 12:31:42;;;;;;;5.03;0.80;;;;;;;-145.49;100.00;55703.94;2088992;28;20703;-67
2023/01/17 12:32:52;;;;;;;2.30;1.10;;;;;;;-145.49;50.53;71590.53;2088384;28;20196;-67
2023/01/17 12:34:12;;;;;;;2.25;0.85;;;;;;;4.81;51.63;93587.66;2088756;28;20220;-67
2023/01/17 12:35:21;;;;;;;2.60;0.77;;;;;;;4.45;52.86;93578.97;2088583;28;20242;-67
2023/01/17 12:36:47;;;;;;;4.95;1.00;;;;;;;3.88;52.18;93566.41;2089276;28;20239;-67
2023/01/17 12:37:55;;;;;;;2.63;0.80;;;;;;;4.28;52.84;93583.53;2089647;28;20200;-67
2023/01/17 12:39:10;;;;;;;1.77;0.80;;;;;;;4.05;54.56;93592.84;2086733;28;20215;-67
2023/01/17 12:40:12;;;;;;;2.53;0.80;;;;;;;3.72;53.55;93587.28;2088931;28;20207;-67
2023/01/17 12:41:23;;;;;;;1.60;0.75;;;;;;;3.93;54.00;93568.69;2089694;28;20687;-67
2023/01/17 12:42:37;;;;;;;1.80;0.70;;;;;;;4.04;54.58;93566.19;2088627;28;20283;-67
2023/01/17 12:43:40;;;;;;;1.83;0.73;;;;;;;4.15;54.62;93567.22;2087561;28;20223;-67
2023/01/17 12:45:19;;;;;;;2.58;0.73;;;;;;;4.10;55.62;93564.94;2087266;28;20196;-67
2023/01/17 12:46:37;;;;;;;2.00;0.80;;;;;;;3.79;55.42;93571.38;2087827;28;20196;-67
2023/01/17 12:47:44;;;;;;;1.80;0.80;;;;;;;3.52;56.34;93561.97;2090331;28;20196;-72
2023/01/17 12:48:51;;;;;;;1.48;0.90;;;;;;;3.85;57.15;93571.78;2088557;28;20226;-72
2023/01/17 12:50:04;;;;;;;2.88;0.80;;;;;;;3.99;57.58;93560.53;2088378;28;20247;-71
2023/01/17 12:51:14;;;;;;;2.95;0.75;;;;;;;3.64;56.22;93553.38;2084891;28;20192;-70
2023/01/17 12:52:24;;;;;;;4.40;1.23;;;;;;;3.76;57.85;93555.16;2088470;28;20687;-69
2023/01/17 12:53:58;;;;;;;6.18;0.95;;;;;;;4.02;58.67;93552.56;2089716;28;20216;-69
2023/01/17 12:55:06;;;;;;;2.80;1.10;;;;;;;3.88;59.80;93550.09;2089674;28;20203;-69
2023/01/17 12:56:21;;;;;;;2.40;0.90;;;;;;;4.13;61.56;93549.25;2087909;28;20227;-69
2023/01/17 12:57:28;;;;;;;2.58;1.10;;;;;;;4.01;59.31;93540.59;2089165;28;20566;-69
2023/01/17 12:58:38;;;;;;;2.03;1.15;;;;;;;3.74;58.92;93532.97;2088728;28;20306;-69
2023/01/17 12:59:47;;;;;;;2.70;0.82;;;;;;;3.42;58.30;93544.50;2090253;28;20200;-69
2023/01/17 13:00:58;;;;;;;1.50;0.80;;;;;;;3.37;59.59;93543.16;2091069;28;20199;-69
2023/01/17 13:02:10;;;;;;;2.28;0.80;;;;;;;3.45;60.05;93540.88;2086031;28;20201;-69
2023/01/17 13:03:23;;;;;;;4.60;1.70;;;;;;;3.75;62.63;93530.25;2087155;28;20196;-69
2023/01/17 13:04:40;;;;;;;1.83;0.77;;;;;;;3.37;60.64;93535.41;2087406;28;20197;-69
2023/01/17 13:06:01;;;;;;;1.63;0.90;;;;;;;3.64;62.60;93543.06;2088337;28;20257;-69
2023/01/17 13:07:18;;;;;;;5.28;1.55;;;;;;;3.65;62.79;93544.72;2090954;28;20216;-69
2023/01/17 13:08:40;;;;;;;4.38;1.10;;;;;;;4.17;63.80;93539.53;2088881;28;20231;-69
2023/01/17 13:09:47;;;;;;;1.98;1.20;;;;;;;3.59;60.93;93539.97;2088912;28;20200;-69
2023/01/17 13:11:01;;;;;;;3.45;1.10;;;;;;;3.83;62.02;93541.84;2090387;28;20385;-69
